Ibiza Aeropuerto en Baleares

latitud = 38° 52' 35''N | longitud = 0014° 23' 04''E
6 metros sobre el nivel del mar |

Fecha, hora, temperatura, viento dirección y velocidad, humedad y presión.

  • 16-07-2018 13:00:00 | 31.30°C | Oeste |31.00 km/h | 22.00% | 1012.50 hPa
  • 16-07-2018 12:00:00 | 30.50°C | Oeste |37.00 km/h | 21.00% | 1011.80 hPa
  • 16-07-2018 11:00:00 | 30.10°C | Oeste |32.00 km/h | 24.00% | 1011.20 hPa
  • 16-07-2018 10:00:00 | 29.30°C | Oeste |42.00 km/h | 24.00% | 1011.00 hPa
  • 16-07-2018 09:00:00 | 28.50°C | Oeste |41.00 km/h | 29.00% | 1010.60 hPa
  • 16-07-2018 08:00:00 | 27.70°C | Oeste |41.00 km/h | 30.00% | 1009.90 hPa
  • 16-07-2018 07:00:00 | 27.50°C | Oeste |36.00 km/h | 33.00% | 1009.40 hPa
  • 16-07-2018 06:00:00 | 25.70°C | Sudoeste |24.00 km/h | 69.00% | 1009.40 hPa
  • 16-07-2018 05:00:00 | 25.50°C | Sudoeste |19.00 km/h | 65.00% | 1009.10 hPa
  • 16-07-2018 04:00:00 | 25.50°C | Sudoeste |31.00 km/h | 65.00% | 1009.40 hPa
  • 16-07-2018 03:00:00 | 25.20°C | Sur |24.00 km/h | 64.00% | 1010.40 hPa
  • 16-07-2018 02:00:00 | 25.00°C | Sur |24.00 km/h | 69.00% | 1010.40 hPa
  • 16-07-2018 01:00:00 | 24.90°C | Sur |21.00 km/h | 75.00% | 1011.20 hPa
  • 16-07-2018 00:00:00 | 24.90°C | Sur |16.00 km/h | 75.00% | 1010.30 hPa
  • 15-07-2018 23:00:00 | 25.20°C | Sur |16.00 km/h | 73.00% | 1010.70 hPa
  • 15-07-2018 22:00:00 | 25.90°C | Sudoeste |27.00 km/h | 70.00% | 1011.30 hPa
  • 15-07-2018 21:00:00 | 26.00°C | Sudoeste |15.00 km/h | 68.00% | 1010.30 hPa
  • 15-07-2018 20:00:00 | 26.40°C | Sudoeste |11.00 km/h | 66.00% | 1010.20 hPa
  • 15-07-2018 19:00:00 | 27.10°C | Sudoeste |21.00 km/h | 66.00% | 1011.00 hPa
  • 15-07-2018 18:00:00 | 27.50°C | Sudoeste |14.00 km/h | 65.00% | 1011.80 hPa
  • 15-07-2018 17:00:00 | 28.10°C | Sudoeste |18.00 km/h | 63.00% | 1012.00 hPa
  • 15-07-2018 16:00:00 | 28.30°C | Sudoeste |19.00 km/h | 62.00% | 1012.20 hPa
  • 15-07-2018 15:00:00 | 28.30°C | Sudoeste |21.00 km/h | 62.00% | 1012.90 hPa
  • 15-07-2018 14:00:00 | 28.40°C | Sudoeste |19.00 km/h | 61.00% | 1013.50 hPa
    • Datos gráficos mensuales de Ibiza Aeropuerto: